Time;durP1;ratioP1;P1;durP2;ratioP2;P2;SDS_P1;SDS_P2;PMS_P1;PMS_P2;Temp;Humidity;BMP_temperature;BMP_pressure;BME280_temperature;BME280_humidity;BME280_pressure;Samples;Min_cycle;Max_cycle;Signal;HPM_P1;HPM_P2
2022/05/17 00:01:37;;;;;;;2.53;1.83;;;20.50;81.40;;;;;;5049524;28;20204;-76
2022/05/17 00:04:04;;;;;;;4.07;1.70;;;20.40;81.20;;;;;;5049955;28;20239;-76
2022/05/17 00:07:08;;;;;;;4.27;2.03;;;20.40;81.50;;;;;;5050382;28;20219;-75
2022/05/17 00:09:35;;;;;;;2.27;1.83;;;20.40;81.70;;;;;;5050262;28;20196;-76
2022/05/17 00:12:03;;;;;;;2.13;1.70;;;20.50;81.90;;;;;;5049878;28;20752;-75
2022/05/17 00:14:32;;;;;;;2.17;1.80;;;20.50;82.60;;;;;;5035343;28;20259;-75
2022/05/17 00:17:00;;;;;;;2.23;1.70;;;20.50;82.60;;;;;;5031858;28;20463;-75
2022/05/17 00:19:27;;;;;;;1.90;1.80;;;20.50;83.00;;;;;;5049742;28;20649;-75
2022/05/17 00:21:54;;;;;;;3.33;1.77;;;20.50;82.60;;;;;;5045691;28;20213;-76
2022/05/17 00:24:23;;;;;;;3.03;1.70;;;20.40;82.90;;;;;;5029774;28;20240;-75
2022/05/17 00:26:50;;;;;;;1.73;1.63;;;20.50;83.60;;;;;;5032757;28;20257;-74
2022/05/17 00:29:17;;;;;;;2.03;1.73;;;20.50;83.60;;;;;;5049499;28;20216;-76
2022/05/17 00:31:46;;;;;;;2.23;1.80;;;20.50;84.30;;;;;;5038976;28;20697;-76
2022/05/17 00:34:13;;;;;;;3.33;2.13;;;20.50;83.50;;;;;;5036277;28;20209;-76
2022/05/17 00:37:14;;;;;;;5.00;1.73;;;20.60;83.70;;;;;;5029719;28;20204;-76
2022/05/17 00:39:40;;;;;;;2.53;1.80;;;20.60;83.70;;;;;;5029674;28;20236;-76
2022/05/17 00:42:08;;;;;;;3.17;2.00;;;20.60;83.90;;;;;;5038915;28;20209;-76
2022/05/17 00:44:43;;;;;;;3.70;1.80;;;20.50;85.00;;;;;;5039169;28;20224;-75
2022/05/17 00:47:17;;;;;;;2.40;2.20;;;20.60;83.80;;;;;;5049255;28;20199;-76
2022/05/17 00:49:50;;;;;;;3.07;1.80;;;20.50;84.30;;;;;;5049777;28;20200;-76
2022/05/17 00:52:19;;;;;;;3.60;2.00;;;20.50;84.70;;;;;;5049177;28;20239;-74
2022/05/17 00:54:47;;;;;;;3.42;2.40;;;20.50;85.40;;;;;;5040400;28;20208;-74
2022/05/17 00:57:25;;;;;;;3.07;2.10;;;20.50;85.80;;;;;;5029255;28;20703;-74
2022/05/17 00:59:52;;;;;;;3.80;2.07;;;20.50;86.20;;;;;;5029354;28;20278;-73
2022/05/17 01:02:21;;;;;;;2.33;2.00;;;20.50;86.00;;;;;;5030290;28;20205;-74
2022/05/17 01:04:48;;;;;;;3.03;2.17;;;20.50;87.00;;;;;;5048926;28;20802;-74
2022/05/17 01:07:21;;;;;;;4.83;2.33;;;20.40;87.10;;;;;;5047520;28;20215;-74
2022/05/17 01:09:47;;;;;;;5.53;2.50;;;20.40;87.90;;;;;;5039570;28;20576;-74
2022/05/17 01:12:14;;;;;;;4.73;2.20;;;20.40;88.60;;;;;;5029110;28;20209;-74
2022/05/17 01:15:00;;;;;;;4.57;2.20;;;20.40;89.00;;;;;;5039409;28;21034;-73
2022/05/17 01:17:32;;;;;;;7.17;2.37;;;20.40;89.70;;;;;;5048234;28;20591;-72
2022/05/17 01:20:00;;;;;;;5.70;2.20;;;20.40;88.80;;;;;;5029092;28;20264;-74
2022/05/17 01:22:28;;;;;;;3.47;2.50;;;20.30;88.60;;;;;;5028999;28;20271;-74
2022/05/17 01:24:55;;;;;;;2.67;2.30;;;20.40;88.80;;;;;;5028500;28;20232;-73
2022/05/17 01:27:28;;;;;;;2.47;2.13;;;20.20;89.10;;;;;;5028553;28;20211;-73
2022/05/17 01:29:55;;;;;;;3.03;1.80;;;20.20;90.00;;;;;;5029133;28;20197;-74
2022/05/17 01:32:22;;;;;;;3.30;1.87;;;20.00;89.30;;;;;;5028487;28;20212;-74
2022/05/17 01:34:49;;;;;;;3.37;2.37;;;19.90;90.40;;;;;;5028554;28;20208;-74
2022/05/17 01:37:17;;;;;;;2.90;2.27;;;19.90;91.10;;;;;;5028582;28;20214;-73
2022/05/17 01:39:46;;;;;;;2.50;2.10;;;19.90;91.60;;;;;;5028320;28;20313;-74
2022/05/17 01:42:13;;;;;;;3.23;2.23;;;20.00;91.80;;;;;;5044866;28;20214;-74
2022/05/17 01:44:41;;;;;;;2.43;2.07;;;20.00;91.60;;;;;;5037828;28;20237;-74
2022/05/17 01:47:08;;;;;;;4.40;2.37;;;20.10;92.20;;;;;;5038388;28;20212;-74
2022/05/17 01:49:35;;;;;;;3.13;2.40;;;20.00;92.70;;;;;;5040907;28;20204;-74
2022/05/17 01:52:07;;;;;;;4.33;2.30;;;19.90;93.30;;;;;;5028444;28;20615;-73
2022/05/17 01:54:34;;;;;;;2.23;2.00;;;19.80;93.70;;;;;;5041478;28;20667;-73
2022/05/17 01:57:33;;;;;;;3.20;2.00;;;19.60;93.80;;;;;;5044008;28;20201;-73
2022/05/17 02:00:00;;;;;;;3.23;2.20;;;19.20;94.90;;;;;;5031167;28;20252;-73
2022/05/17 02:02:26;;;;;;;3.00;2.20;;;19.00;95.80;;;;;;5043312;28;20257;-73
2022/05/17 02:04:53;;;;;;;2.83;2.17;;;18.80;96.00;;;;;;5039710;28;20938;-74
2022/05/17 02:07:20;;;;;;;3.37;2.33;;;18.80;96.10;;;;;;5027944;28;20638;-72
2022/05/17 02:09:47;;;;;;;5.03;2.33;;;18.80;96.90;;;;;;5027350;28;20205;-74
2022/05/17 02:12:14;;;;;;;4.37;2.27;;;18.90;97.20;;;;;;5027595;28;20604;-74
2022/05/17 02:14:42;;;;;;;3.47;2.40;;;19.00;97.30;;;;;;5031873;28;20224;-74
2022/05/17 02:17:50;;;;;;;2.67;2.37;;;18.80;97.90;;;;;;5027839;28;20239;-74
2022/05/17 02:20:17;;;;;;;4.20;2.70;;;18.50;98.40;;;;;;4988579;28;20260;-76
2022/05/17 02:22:44;;;;;;;2.60;2.40;;;18.50;98.70;;;;;;4988683;28;20206;-75
2022/05/17 02:25:12;;;;;;;3.77;2.33;;;18.70;99.00;;;;;;4988267;28;20226;-76
2022/05/17 02:27:39;;;;;;;2.43;2.20;;;18.80;99.20;;;;;;4988818;28;20617;-76
2022/05/17 02:30:10;;;;;;;3.30;2.40;;;18.80;99.90;;;;;;4988181;28;20748;-73
2022/05/17 02:32:37;;;;;;;2.70;2.33;;;18.90;99.90;;;;;;4988540;28;20199;-73
2022/05/17 02:35:05;;;;;;;2.50;2.13;;;18.90;99.90;;;;;;4988454;28;20206;-73
2022/05/17 02:37:32;;;;;;;5.13;2.67;;;19.00;99.90;;;;;;4988512;28;20214;-73
2022/05/17 02:39:58;;;;;;;2.50;2.30;;;19.00;99.90;;;;;;4988544;28;20214;-73
2022/05/17 02:42:25;;;;;;;6.60;2.60;;;19.00;99.90;;;;;;4988215;28;20483;-77
2022/05/17 02:44:52;;;;;;;3.00;2.70;;;19.00;99.90;;;;;;5000823;28;20253;-77
2022/05/17 02:47:20;;;;;;;2.30;2.20;;;19.00;99.90;;;;;;5008110;28;20572;-76
2022/05/17 02:49:47;;;;;;;2.83;2.43;;;18.90;99.90;;;;;;5008175;28;20267;-76
2022/05/17 02:52:14;;;;;;;3.33;2.50;;;18.90;99.90;;;;;;5007143;28;20636;-77
2022/05/17 02:54:41;;;;;;;3.10;2.30;;;18.90;99.90;;;;;;5007564;28;20587;-76
2022/05/17 02:57:11;;;;;;;3.60;2.70;;;18.90;99.90;;;;;;5007540;28;20730;-77
2022/05/17 02:59:38;;;;;;;4.20;2.67;;;18.80;99.90;;;;;;5007911;28;20232;-77
2022/05/17 03:02:05;;;;;;;4.43;2.70;;;18.80;99.90;;;;;;5004636;28;20726;-75
2022/05/17 03:04:33;;;;;;;3.73;2.90;;;18.80;99.90;;;;;;4996081;28;20220;-74
2022/05/17 03:07:00;;;;;;;7.23;2.87;;;18.70;99.90;;;;;;4988391;28;20273;-75
2022/05/17 03:09:26;;;;;;;3.93;2.80;;;18.50;99.90;;;;;;4987790;28;20210;-74
2022/05/17 03:11:53;;;;;;;4.17;2.90;;;18.40;99.90;;;;;;4986311;28;20213;-74
2022/05/17 03:14:21;;;;;;;2.93;2.73;;;18.30;99.90;;;;;;4993094;28;20217;-74
2022/05/17 03:16:56;;;;;;;3.00;2.60;;;18.00;99.90;;;;;;5005419;28;20214;-74
2022/05/17 03:19:23;;;;;;;6.00;2.90;;;17.50;99.90;;;;;;5030403;28;20240;-74
2022/05/17 03:21:57;;;;;;;6.30;2.67;;;17.40;99.90;;;;;;5044668;28;20717;-75
2022/05/17 03:24:24;;;;;;;3.97;3.57;;;17.40;99.90;;;;;;5044715;28;20273;-75
2022/05/17 03:27:19;;;;;;;5.97;3.03;;;17.50;99.90;;;;;;5046709;28;20236;-75
2022/05/17 03:29:46;;;;;;;3.80;2.77;;;17.70;99.90;;;;;;5049132;28;20957;-75
2022/05/17 03:32:59;;;;;;;3.33;2.60;;;17.80;99.90;;;;;;5048836;28;20204;-75
2022/05/17 03:35:26;;;;;;;3.70;2.77;;;17.40;99.90;;;;;;5028785;28;20201;-75
2022/05/17 03:37:53;;;;;;;5.80;2.60;;;17.50;99.90;;;;;;5028977;28;20767;-76
2022/05/17 03:40:20;;;;;;;2.60;2.40;;;17.60;99.90;;;;;;5028776;28;20240;-75
2022/05/17 03:42:47;;;;;;;3.13;2.40;;;17.70;99.90;;;;;;5028808;28;20259;-75
2022/05/17 03:45:14;;;;;;;3.43;2.93;;;17.60;99.90;;;;;;5043123;28;20721;-75
2022/05/17 03:47:41;;;;;;;3.63;2.90;;;17.70;99.90;;;;;;5048411;28;20275;-76
2022/05/17 03:50:10;;;;;;;2.83;2.63;;;17.60;99.90;;;;;;5048667;28;20205;-75
2022/05/17 03:52:36;;;;;;;4.50;3.00;;;17.70;99.90;;;;;;5048450;28;20278;-75
2022/05/17 03:55:07;;;;;;;3.40;2.60;;;17.70;99.90;;;;;;5048157;28;20212;-76
2022/05/17 03:57:34;;;;;;;6.73;2.87;;;17.70;99.90;;;;;;5047898;28;20203;-75
2022/05/17 04:00:01;;;;;;;4.13;2.47;;;17.60;99.90;;;;;;5048984;28;20224;-76
2022/05/17 04:02:28;;;;;;;6.00;3.00;;;17.60;99.90;;;;;;5044866;28;20209;-77
2022/05/17 04:04:55;;;;;;;4.23;3.00;;;17.50;99.90;;;;;;5047950;28;20295;-75
2022/05/17 04:07:47;;;;;;;4.33;2.90;;;17.50;99.90;;;;;;5059113;28;20270;-76
2022/05/17 04:10:16;;;;;;;3.13;2.93;;;17.50;99.90;;;;;;5044049;28;20211;-75
2022/05/17 04:12:44;;;;;;;4.37;3.00;;;17.60;99.90;;;;;;5039332;28;20216;-74
2022/05/17 04:15:14;;;;;;;4.80;3.03;;;17.60;99.90;;;;;;5048244;28;20205;-75
2022/05/17 04:17:42;;;;;;;4.17;2.93;;;17.70;99.90;;;;;;5041031;28;20234;-74
2022/05/17 04:20:11;;;;;;;5.13;3.30;;;17.70;99.90;;;;;;5033155;28;20278;-74
2022/05/17 04:22:56;;;;;;;5.67;3.00;;;17.70;99.90;;;;;;5044541;28;20197;-74
2022/05/17 04:25:26;;;;;;;3.40;3.10;;;17.70;99.90;;;;;;5044214;28;20224;-74
2022/05/17 04:27:52;;;;;;;5.60;3.00;;;17.70;99.90;;;;;;5048721;28;20216;-73
2022/05/17 04:30:20;;;;;;;4.50;3.20;;;17.70;99.90;;;;;;5048299;28;20196;-74
2022/05/17 04:32:47;;;;;;;4.03;3.63;;;17.70;99.90;;;;;;5048662;28;20683;-74
2022/05/17 04:35:15;;;;;;;6.97;3.10;;;17.60;99.90;;;;;;5048808;28;20307;-74
2022/05/17 04:37:42;;;;;;;4.90;3.10;;;17.60;99.90;;;;;;5047663;28;20200;-74
2022/05/17 04:40:11;;;;;;;4.73;2.83;;;17.60;99.90;;;;;;5048349;28;20230;-74
2022/05/17 04:42:40;;;;;;;4.87;3.10;;;17.50;99.90;;;;;;5048707;28;20196;-74
2022/05/17 04:45:10;;;;;;;7.53;3.40;;;17.60;99.90;;;;;;5047812;28;20204;-74
2022/05/17 04:47:39;;;;;;;3.60;3.00;;;17.50;99.90;;;;;;5047950;28;20258;-74
2022/05/17 04:50:06;;;;;;;4.10;2.97;;;17.50;99.90;;;;;;5048563;28;20196;-74
2022/05/17 04:52:33;;;;;;;3.83;3.00;;;17.50;99.90;;;;;;5045917;28;20197;-74
2022/05/17 04:55:00;;;;;;;9.03;3.30;;;17.60;99.90;;;;;;5048100;28;20666;-74
2022/05/17 04:57:27;;;;;;;3.80;2.90;;;17.50;99.90;;;;;;5048294;28;20200;-74
2022/05/17 04:59:55;;;;;;;3.23;2.90;;;17.60;99.90;;;;;;5048128;28;20216;-74
2022/05/17 05:02:30;;;;;;;5.53;3.27;;;17.40;99.90;;;;;;5048217;28;20204;-74
2022/05/17 05:04:57;;;;;;;4.80;2.80;;;17.40;99.90;;;;;;5048012;28;20250;-74
2022/05/17 05:07:33;;;;;;;5.33;2.80;;;17.50;99.90;;;;;;5048155;28;20204;-74
2022/05/17 05:09:59;;;;;;;5.00;3.27;;;17.50;99.90;;;;;;5045879;28;20206;-74
2022/05/17 05:12:51;;;;;;;4.20;3.30;;;17.40;99.90;;;;;;5047897;28;20230;-74
2022/05/17 05:15:20;;;;;;;4.53;3.33;;;17.50;99.90;;;;;;5043758;28;20261;-74
2022/05/17 05:17:46;;;;;;;7.23;3.07;;;17.50;99.90;;;;;;5047161;28;20196;-74
2022/05/17 05:20:16;;;;;;;5.30;3.37;;;17.50;99.90;;;;;;5044842;28;20868;-73
2022/05/17 05:22:43;;;;;;;4.70;3.20;;;17.50;99.90;;;;;;5046174;28;20212;-73
2022/05/17 05:25:11;;;;;;;6.37;3.80;;;17.50;99.90;;;;;;5041487;28;20208;-73
2022/05/17 05:27:39;;;;;;;5.63;3.40;;;17.40;99.90;;;;;;5042998;28;20200;-73
2022/05/17 05:30:08;;;;;;;5.33;3.43;;;17.50;99.90;;;;;;5047449;28;20197;-73
2022/05/17 05:32:36;;;;;;;4.17;3.20;;;17.50;99.90;;;;;;5047127;28;20196;-74
2022/05/17 05:35:04;;;;;;;4.23;3.70;;;17.20;99.90;;;;;;5047114;28;20200;-74
2022/05/17 05:37:55;;;;;;;3.50;3.20;;;17.00;99.90;;;;;;5047331;28;20216;-74
2022/05/17 05:43:45;;;;;;;3.57;3.27;;;17.20;99.90;;;;;;5045701;28;20311;-74
2022/05/17 05:48:53;;;;;;;5.67;3.17;;;17.40;99.90;;;;;;5027508;28;20587;-74
2022/05/17 05:51:20;;;;;;;5.37;4.87;;;17.50;99.90;;;;;;5046992;28;20701;-74
2022/05/17 05:53:47;;;;;;;4.30;3.53;;;17.60;99.90;;;;;;5047435;28;20204;-75
2022/05/17 05:56:14;;;;;;;5.13;3.97;;;17.60;99.90;;;;;;5047181;28;20243;-75
2022/05/17 05:58:42;;;;;;;4.67;3.53;;;17.60;99.90;;;;;;5046798;28;21629;-74
2022/05/17 06:01:09;;;;;;;6.07;4.10;;;17.60;99.90;;;;;;5046553;28;20220;-74
2022/05/17 06:03:36;;;;;;;7.77;3.90;;;17.80;99.90;;;;;;5046428;28;20258;-74
2022/05/17 06:06:05;;;;;;;6.23;4.17;;;17.80;99.90;;;;;;5046694;28;20224;-74
2022/05/17 06:08:32;;;;;;;6.87;4.37;;;17.90;99.90;;;;;;5043432;28;20196;-74
2022/05/17 06:11:01;;;;;;;4.70;4.17;;;17.90;99.90;;;;;;5046594;28;20613;-74
2022/05/17 06:13:28;;;;;;;5.67;4.83;;;17.90;99.90;;;;;;5045565;28;20246;-75
2022/05/17 06:15:54;;;;;;;7.07;4.53;;;17.80;99.90;;;;;;5045385;28;20682;-74
2022/05/17 06:18:21;;;;;;;6.53;4.83;;;17.90;99.90;;;;;;5046308;28;20301;-74
2022/05/17 06:20:50;;;;;;;7.47;4.83;;;17.90;99.90;;;;;;5046640;28;20204;-74
2022/05/17 06:23:19;;;;;;;8.47;5.40;;;17.80;99.90;;;;;;5046423;28;20299;-74
2022/05/17 06:25:46;;;;;;;6.77;4.90;;;17.80;99.90;;;;;;5046361;28;20215;-74
2022/05/17 06:28:16;;;;;;;7.80;4.97;;;17.90;99.90;;;;;;5044456;28;20196;-74
2022/05/17 06:30:43;;;;;;;6.57;4.50;;;17.90;99.90;;;;;;5046262;28;20285;-74
2022/05/17 06:33:10;;;;;;;4.60;4.20;;;17.90;99.90;;;;;;5046268;28;20199;-74
2022/05/17 06:35:37;;;;;;;6.83;4.73;;;17.90;99.90;;;;;;5047678;28;20204;-74
2022/05/17 06:38:04;;;;;;;6.10;4.63;;;17.90;99.90;;;;;;5047346;28;20239;-74
2022/05/17 06:40:32;;;;;;;7.77;5.27;;;17.90;99.90;;;;;;5047162;28;20212;-74
2022/05/17 06:43:09;;;;;;;10.10;5.57;;;17.90;99.90;;;;;;5042204;28;20246;-74
2022/05/17 06:45:36;;;;;;;7.80;4.77;;;17.90;99.90;;;;;;5038087;28;20663;-75
2022/05/17 06:48:04;;;;;;;6.63;4.10;;;17.90;99.90;;;;;;5028699;28;20213;-74
2022/05/17 06:50:32;;;;;;;6.10;4.37;;;17.90;99.90;;;;;;5027629;28;20620;-74
2022/05/17 06:53:03;;;;;;;5.40;4.50;;;17.90;99.90;;;;;;5028591;28;20240;-74
2022/05/17 06:55:32;;;;;;;6.87;4.77;;;17.90;99.90;;;;;;5027392;28;20224;-74
2022/05/17 06:58:00;;;;;;;4.50;4.10;;;17.90;99.90;;;;;;5041978;28;20212;-74
2022/05/17 07:00:27;;;;;;;4.10;3.70;;;17.90;99.90;;;;;;5042389;28;20951;-74
2022/05/17 07:14:00;;;;;;;6.07;4.63;;;17.70;99.90;;;;;;5058492;28;20207;-74
2022/05/17 07:16:26;;;;;;;5.50;5.10;;;17.70;99.90;;;;;;5069326;28;20199;-74
2022/05/17 07:18:53;;;;;;;4.67;4.27;;;17.10;99.90;;;;;;5060768;28;20606;-74
2022/05/17 07:21:19;;;;;;;4.93;4.53;;;17.10;99.90;;;;;;5067868;28;20196;-74
2022/05/17 07:23:46;;;;;;;4.10;3.60;;;16.90;99.90;;;;;;5070277;28;20777;-74
2022/05/17 07:26:15;;;;;;;4.53;4.13;;;17.00;99.90;;;;;;5069094;28;20223;-74
2022/05/17 07:28:43;;;;;;;4.63;3.60;;;16.90;99.90;;;;;;5070377;28;20273;-74
2022/05/17 07:31:11;;;;;;;4.73;4.17;;;16.80;99.90;;;;;;5070099;28;20204;-74
2022/05/17 07:33:37;;;;;;;5.87;4.10;;;16.80;99.90;;;;;;5070063;28;20210;-74
2022/05/17 07:36:08;;;;;;;4.97;4.00;;;17.00;99.90;;;;;;5068368;28;20204;-74
2022/05/17 07:38:35;;;;;;;7.00;4.57;;;17.00;99.90;;;;;;5068577;28;20200;-74
2022/05/17 07:41:05;;;;;;;6.17;4.10;;;16.90;99.90;;;;;;5070036;28;20206;-74
2022/05/17 07:43:34;;;;;;;4.83;4.40;;;16.80;99.90;;;;;;5070131;28;20222;-74
2022/05/17 07:46:01;;;;;;;5.00;4.50;;;16.60;99.90;;;;;;5070101;28;20269;-73
2022/05/17 07:48:28;;;;;;;5.73;5.03;;;16.50;99.90;;;;;;5069975;28;20241;-74
2022/05/17 07:50:55;;;;;;;4.83;4.43;;;16.40;99.90;;;;;;5069766;28;20277;-73
2022/05/17 07:53:23;;;;;;;6.27;4.53;;;16.30;99.90;;;;;;5062531;28;20208;-74
2022/05/17 07:55:50;;;;;;;4.43;4.03;;;16.20;99.90;;;;;;5057245;28;20572;-74
2022/05/17 07:58:17;;;;;;;4.40;4.10;;;16.20;99.90;;;;;;5069763;28;20212;-73
2022/05/17 08:00:45;;;;;;;4.60;4.20;;;16.50;99.90;;;;;;5069561;28;20237;-74
2022/05/17 08:03:15;;;;;;;4.77;4.37;;;16.80;99.90;;;;;;5063526;28;20257;-74
2022/05/17 08:05:42;;;;;;;9.00;4.00;;;17.10;99.90;;;;;;5069146;28;20198;-73
2022/05/17 08:08:09;;;;;;;5.70;3.83;;;17.10;99.90;;;;;;5066128;28;20588;-73
2022/05/17 08:10:35;;;;;;;4.57;4.23;;;17.40;99.90;;;;;;5050514;28;20228;-73
2022/05/17 08:13:02;;;;;;;4.40;3.70;;;17.40;99.90;;;;;;5048655;28;20200;-73
2022/05/17 08:15:30;;;;;;;6.37;3.93;;;17.50;99.90;;;;;;5049072;28;20214;-75
2022/05/17 08:17:58;;;;;;;6.03;4.33;;;17.50;99.90;;;;;;5048776;28;20286;-74
2022/05/17 08:20:25;;;;;;;5.23;3.87;;;17.60;99.90;;;;;;5048950;28;20196;-74
2022/05/17 08:22:52;;;;;;;5.83;4.10;;;17.60;99.90;;;;;;5049221;28;20201;-74
2022/05/17 08:28:06;;;;;;;5.67;4.50;;;17.40;99.90;;;;;;5048479;28;20238;-74
2022/05/17 08:30:34;;;;;;;5.40;4.10;;;17.40;99.90;;;;;;5048830;28;20204;-74
2022/05/17 08:33:17;;;;;;;9.47;4.40;;;17.50;99.90;;;;;;5048587;28;20242;-73
2022/05/17 08:35:49;;;;;;;5.57;4.60;;;17.30;99.90;;;;;;5048102;28;20200;-73
2022/05/17 08:38:18;;;;;;;4.77;4.37;;;17.40;99.90;;;;;;5048810;28;20228;-74
2022/05/17 08:40:55;;;;;;;5.83;3.90;;;17.60;99.90;;;;;;5048006;28;20204;-73
2022/05/17 08:43:26;;;;;;;5.70;4.43;;;17.50;99.90;;;;;;5048396;28;20192;-74
2022/05/17 08:46:07;;;;;;;6.97;4.80;;;17.50;99.90;;;;;;5048614;28;20200;-74
2022/05/17 08:48:44;;;;;;;5.10;4.70;;;17.50;99.90;;;;;;5048054;28;20217;-74
2022/05/17 08:51:15;;;;;;;5.23;4.73;;;17.50;99.90;;;;;;5045854;28;20196;-74
2022/05/17 08:53:43;;;;;;;5.50;5.00;;;17.40;99.90;;;;;;5047881;28;20192;-74
2022/05/17 08:56:10;;;;;;;8.53;4.23;;;17.40;99.90;;;;;;5044425;28;20266;-74
2022/05/17 08:58:40;;;;;;;5.13;4.20;;;17.60;99.90;;;;;;5048033;28;20192;-73
2022/05/17 09:01:15;;;;;;;4.40;4.00;;;17.70;99.90;;;;;;5048133;28;20254;-73
2022/05/17 09:03:56;;;;;;;6.03;5.00;;;17.90;99.90;;;;;;5048184;28;20271;-74
2022/05/17 09:06:29;;;;;;;5.17;4.00;;;18.00;99.90;;;;;;5047433;28;20196;-74
2022/05/17 09:09:01;;;;;;;4.63;4.13;;;18.00;99.90;;;;;;5048663;28;20273;-74
2022/05/17 09:11:33;;;;;;;4.73;4.07;;;18.20;99.90;;;;;;5008835;28;20565;-74
2022/05/17 09:14:04;;;;;;;4.60;4.00;;;18.30;99.90;;;;;;5009795;28;20201;-74
2022/05/17 09:16:34;;;;;;;4.43;3.93;;;18.50;99.90;;;;;;5009317;28;20202;-74
2022/05/17 09:19:02;;;;;;;4.57;4.17;;;18.60;99.90;;;;;;5009120;28;20197;-74
2022/05/17 09:21:32;;;;;;;4.87;4.27;;;18.60;99.90;;;;;;5009436;28;20205;-74
2022/05/17 09:24:02;;;;;;;4.63;4.23;;;18.60;99.90;;;;;;5009048;28;20217;-74
2022/05/17 09:26:30;;;;;;;6.37;4.87;;;18.60;99.90;;;;;;5008130;28;20228;-74
2022/05/17 09:29:00;;;;;;;5.80;3.83;;;18.60;99.90;;;;;;5007462;28;20259;-74
2022/05/17 09:31:31;;;;;;;6.00;4.20;;;18.70;99.90;;;;;;5007580;28;20308;-74
2022/05/17 09:34:01;;;;;;;5.03;3.67;;;18.80;99.90;;;;;;5007317;28;20268;-74
2022/05/17 09:36:42;;;;;;;5.03;4.50;;;18.90;99.90;;;;;;5007160;28;20204;-74
2022/05/17 09:39:09;;;;;;;5.23;3.90;;;18.90;99.90;;;;;;5007178;28;20248;-74
2022/05/17 09:41:40;;;;;;;6.13;4.00;;;18.90;99.90;;;;;;5007265;28;20247;-74
2022/05/17 09:44:11;;;;;;;4.80;4.23;;;18.80;99.90;;;;;;5007306;28;20197;-74
2022/05/17 09:46:45;;;;;;;4.87;4.47;;;18.80;99.90;;;;;;5006951;28;20924;-74
2022/05/17 09:52:34;;;;;;;5.10;3.70;;;19.00;99.90;;;;;;5006881;28;20213;-74
2022/05/17 09:55:11;;;;;;;8.53;4.50;;;19.00;99.90;;;;;;5003385;28;20202;-74
2022/05/17 09:57:38;;;;;;;5.47;3.93;;;19.10;99.90;;;;;;5005872;28;20244;-74
2022/05/17 10:00:08;;;;;;;5.07;3.60;;;19.20;99.90;;;;;;5007464;28;20560;-75
2022/05/17 10:02:43;;;;;;;3.87;3.37;;;19.30;99.90;;;;;;5005226;28;20197;-74
2022/05/17 10:05:16;;;;;;;5.97;3.83;;;19.30;99.90;;;;;;5006737;28;20209;-74
2022/05/17 10:07:49;;;;;;;4.37;3.67;;;19.20;99.90;;;;;;5007210;28;20220;-74
2022/05/17 10:10:30;;;;;;;4.93;3.50;;;19.30;99.90;;;;;;5024472;28;20263;-74
2022/05/17 10:13:09;;;;;;;5.17;3.60;;;19.40;99.90;;;;;;5044919;28;20198;-74
2022/05/17 10:15:38;;;;;;;3.60;3.30;;;19.50;99.90;;;;;;5044434;28;20246;-74
2022/05/17 10:18:16;;;;;;;4.30;3.83;;;19.40;99.90;;;;;;5046757;28;20204;-74
2022/05/17 10:20:47;;;;;;;4.47;3.43;;;19.30;99.90;;;;;;5045088;28;20642;-75
2022/05/17 10:23:30;;;;;;;6.17;3.63;;;19.40;99.90;;;;;;5044209;28;20583;-74
2022/05/17 10:26:05;;;;;;;4.83;3.77;;;19.40;99.90;;;;;;5044500;28;20599;-74
2022/05/17 10:28:39;;;;;;;4.70;3.67;;;19.40;99.90;;;;;;5043440;28;20216;-74
2022/05/17 10:31:13;;;;;;;4.30;3.90;;;19.50;99.90;;;;;;5046586;28;20695;-74
2022/05/17 10:33:59;;;;;;;3.70;3.40;;;19.60;99.90;;;;;;5046514;28;20201;-74
2022/05/17 10:36:30;;;;;;;4.20;3.80;;;19.60;99.90;;;;;;5045583;28;20203;-74
2022/05/17 10:39:03;;;;;;;5.00;4.00;;;19.80;99.90;;;;;;5046843;28;20208;-75
2022/05/17 10:41:30;;;;;;;4.40;3.90;;;19.90;99.90;;;;;;5044230;28;20243;-74
2022/05/17 10:43:58;;;;;;;6.10;3.90;;;19.80;99.90;;;;;;5046395;28;20261;-74
2022/05/17 10:46:30;;;;;;;4.87;4.17;;;19.90;99.90;;;;;;5046265;28;20250;-74
2022/05/17 10:49:07;;;;;;;5.77;4.17;;;19.80;99.90;;;;;;5044404;28;20208;-74
2022/05/17 10:51:40;;;;;;;9.10;4.50;;;20.00;99.90;;;;;;5043375;28;20196;-74
2022/05/17 10:54:16;;;;;;;7.63;4.10;;;20.20;99.90;;;;;;5046573;28;20192;-74
2022/05/17 10:56:51;;;;;;;4.63;3.93;;;20.10;99.90;;;;;;5046007;28;20685;-74
2022/05/17 10:59:29;;;;;;;5.87;4.00;;;19.80;99.90;;;;;;5041384;28;20195;-74
2022/05/17 11:02:08;;;;;;;4.63;3.73;;;19.90;99.90;;;;;;5044409;28;20196;-74
2022/05/17 11:05:02;;;;;;;4.97;3.87;;;19.80;99.90;;;;;;5046206;28;20215;-77
2022/05/17 11:07:43;;;;;;;5.10;4.10;;;19.60;99.90;;;;;;5046010;28;20605;-74
2022/05/17 11:10:27;;;;;;;4.70;3.90;;;19.70;99.90;;;;;;5045731;28;20236;-74
2022/05/17 11:13:00;;;;;;;4.90;3.87;;;20.00;99.90;;;;;;5043945;28;20626;-74
2022/05/17 11:15:33;;;;;;;5.27;4.77;;;19.90;99.90;;;;;;5045972;28;20185;-74
2022/05/17 11:18:08;;;;;;;7.70;4.77;;;20.00;99.90;;;;;;5045939;28;20207;-74
2022/05/17 11:20:39;;;;;;;5.20;4.40;;;20.10;99.90;;;;;;5043764;28;20596;-74
2022/05/17 11:23:24;;;;;;;6.13;4.13;;;20.20;99.90;;;;;;5046024;28;20277;-74
2022/05/17 11:26:12;;;;;;;6.57;3.90;;;20.30;99.90;;;;;;5045948;28;20283;-74
2022/05/17 11:29:00;;;;;;;6.23;4.33;;;20.50;99.90;;;;;;5044081;28;20220;-75
2022/05/17 11:31:40;;;;;;;6.93;4.00;;;20.70;99.90;;;;;;5045309;28;20227;-75
2022/05/17 11:34:26;;;;;;;4.07;3.77;;;20.50;99.90;;;;;;5045188;28;20678;-75
2022/05/17 11:36:56;;;;;;;4.50;4.10;;;20.70;99.90;;;;;;5043515;28;20212;-74
2022/05/17 11:39:46;;;;;;;4.23;3.60;;;20.50;99.90;;;;;;5045696;28;20638;-75
2022/05/17 11:42:30;;;;;;;7.33;3.93;;;20.50;99.90;;;;;;5043244;28;20188;-75
2022/05/17 11:45:18;;;;;;;5.67;4.07;;;20.40;99.90;;;;;;5043597;28;20196;-75
2022/05/17 11:47:49;;;;;;;5.30;4.53;;;20.30;99.90;;;;;;5047188;28;20297;-75
2022/05/17 11:50:42;;;;;;;5.03;3.60;;;20.50;99.90;;;;;;5049559;28;20217;-75
2022/05/17 11:53:33;;;;;;;4.97;4.47;;;20.70;99.90;;;;;;5035616;28;20216;-75
2022/05/17 11:56:19;;;;;;;4.07;3.60;;;20.70;99.90;;;;;;5045207;28;20211;-75
2022/05/17 11:58:49;;;;;;;5.07;3.37;;;20.80;99.90;;;;;;5048640;28;20275;-75
2022/05/17 12:01:46;;;;;;;3.90;3.50;;;20.90;99.90;;;;;;5046995;28;20254;-74
2022/05/17 12:04:42;;;;;;;6.23;4.70;;;21.00;99.90;;;;;;5048359;28;20208;-74
2022/05/17 12:07:27;;;;;;;4.80;4.27;;;20.80;99.90;;;;;;5031469;28;20201;-74
2022/05/17 12:09:56;;;;;;;4.40;4.00;;;20.80;99.90;;;;;;5049332;28;20662;-74
2022/05/17 12:12:54;;;;;;;4.80;4.20;;;20.90;99.90;;;;;;5049854;28;20224;-74
2022/05/17 12:15:35;;;;;;;5.60;4.53;;;20.80;99.90;;;;;;5049930;28;20615;-74
2022/05/17 12:18:32;;;;;;;7.30;4.63;;;20.90;99.90;;;;;;5049663;28;20619;-74
2022/05/17 12:21:32;;;;;;;4.10;3.77;;;20.90;99.90;;;;;;5039786;28;20250;-74
2022/05/17 12:24:05;;;;;;;4.87;4.40;;;21.10;99.90;;;;;;5049771;28;20298;-74
2022/05/17 12:26:49;;;;;;;5.73;4.83;;;21.10;99.90;;;;;;5048391;28;20199;-74
2022/05/17 12:32:11;;;;;;;5.87;4.50;;;21.50;99.90;;;;;;5013830;28;20294;-75
2022/05/17 12:34:38;;;;;;;4.07;3.63;;;21.70;99.90;;;;;;5050884;28;20212;-76
2022/05/17 12:37:10;;;;;;;4.63;4.10;;;22.00;99.90;;;;;;5047152;28;20208;-74
2022/05/17 12:45:14;;;;;;;4.40;4.00;;;21.80;99.90;;;;;;5047815;28;20288;-75
2022/05/17 12:47:48;;;;;;;4.20;3.77;;;21.90;99.90;;;;;;5047226;28;20216;-74
2022/05/17 12:50:20;;;;;;;4.10;3.80;;;21.90;99.90;;;;;;5047127;28;20199;-74
2022/05/17 12:52:52;;;;;;;5.03;3.50;;;22.00;99.90;;;;;;5047225;28;20995;-74
2022/05/17 12:55:21;;;;;;;6.60;3.87;;;22.10;99.90;;;;;;5047097;28;20208;-75
2022/05/17 12:57:48;;;;;;;4.40;3.30;;;22.30;99.90;;;;;;5046910;28;20236;-74
2022/05/17 13:00:18;;;;;;;4.22;3.88;;;22.40;99.90;;;;;;5046809;28;20783;-74
2022/05/17 13:02:48;;;;;;;5.22;4.30;;;22.50;99.90;;;;;;5046423;28;20619;-74
2022/05/17 13:05:26;;;;;;;3.55;3.30;;;22.70;99.90;;;;;;5047412;28;20724;-74
2022/05/17 13:08:00;;;;;;;3.80;3.40;;;22.70;99.90;;;;;;5047494;28;20240;-74
2022/05/17 13:10:27;;;;;;;4.20;3.40;;;22.70;99.90;;;;;;5046344;28;20304;-74
2022/05/17 13:12:54;;;;;;;4.03;3.20;;;22.50;99.90;;;;;;5046831;28;20238;-74
2022/05/17 13:15:21;;;;;;;3.40;3.10;;;22.40;99.90;;;;;;5046116;28;20611;-74
2022/05/17 13:17:54;;;;;;;3.70;3.40;;;22.40;99.90;;;;;;5046141;28;20694;-73
2022/05/17 13:20:25;;;;;;;5.50;3.85;;;22.30;99.90;;;;;;5046644;28;20313;-74
2022/05/17 13:22:54;;;;;;;4.88;3.67;;;22.30;99.90;;;;;;5056387;28;20226;-73
2022/05/17 13:25:23;;;;;;;3.85;3.50;;;22.30;99.90;;;;;;5047130;28;20208;-74
2022/05/17 13:27:53;;;;;;;6.35;3.53;;;22.20;99.90;;;;;;5046682;28;20766;-74
2022/05/17 13:30:30;;;;;;;4.27;3.30;;;22.30;99.90;;;;;;5046160;28;20215;-74
2022/05/17 13:33:01;;;;;;;5.65;4.47;;;22.30;99.90;;;;;;5046110;28;20199;-73
2022/05/17 13:35:34;;;;;;;3.77;3.43;;;22.10;99.90;;;;;;5046232;28;20675;-74
2022/05/17 13:38:05;;;;;;;3.60;3.20;;;22.10;99.90;;;;;;5049975;28;20274;-74
2022/05/17 13:40:38;;;;;;;3.78;3.47;;;22.30;99.90;;;;;;5029912;28;20200;-74
2022/05/17 13:43:21;;;;;;;4.28;3.65;;;22.50;99.90;;;;;;5043908;28;20206;-74